createdAt,value
2022-08-08T00:02:30.266Z,15.04
2022-08-08T00:04:54.140Z,14.97
2022-08-08T00:07:40.745Z,14.93
2022-08-08T00:10:15.994Z,14.97
2022-08-08T00:12:56.811Z,14.94
2022-08-08T00:15:56.832Z,14.92
2022-08-08T00:18:23.802Z,14.89
2022-08-08T00:20:57.586Z,14.84
2022-08-08T00:23:42.986Z,14.83
2022-08-08T00:26:26.419Z,14.81
2022-08-08T00:29:07.879Z,14.78
2022-08-08T00:32:33.010Z,14.73
2022-08-08T00:35:18.459Z,14.70
2022-08-08T00:38:02.937Z,14.67
2022-08-08T00:41:06.948Z,14.66
2022-08-08T00:44:02.292Z,14.64
2022-08-08T00:47:23.069Z,14.61
2022-08-08T00:50:29.957Z,14.61
2022-08-08T00:53:15.690Z,14.60
2022-08-08T00:56:20.832Z,14.58
2022-08-08T00:59:44.047Z,14.63
2022-08-08T01:03:58.026Z,14.67
2022-08-08T01:06:32.393Z,14.68
2022-08-08T01:09:35.971Z,14.69
2022-08-08T01:12:31.266Z,14.69
2022-08-08T01:15:43.979Z,14.68
2022-08-08T01:18:52.627Z,14.68
2022-08-08T01:22:07.210Z,14.70
2022-08-08T01:25:16.855Z,14.72
2022-08-08T01:28:15.804Z,14.72
2022-08-08T01:32:13.031Z,14.73
2022-08-08T01:35:11.159Z,14.77
2022-08-08T01:38:04.605Z,14.75
2022-08-08T01:40:38.455Z,14.74
2022-08-08T01:43:16.574Z,14.77
2022-08-08T01:45:56.458Z,14.82
2022-08-08T01:48:46.145Z,14.84
2022-08-08T01:52:03.687Z,14.89
2022-08-08T01:55:15.718Z,14.96
2022-08-08T01:58:13.164Z,15.09
2022-08-08T02:00:35.172Z,15.13
2022-08-08T02:03:56.876Z,15.09
2022-08-08T02:06:31.804Z,15.13
2022-08-08T02:09:16.002Z,15.19
2022-08-08T02:11:59.953Z,15.20
2022-08-08T02:14:55.583Z,15.23
2022-08-08T02:17:45.716Z,15.20
2022-08-08T02:21:02.717Z,15.17
2022-08-08T02:23:20.946Z,15.15
2022-08-08T02:26:02.536Z,15.09
2022-08-08T02:28:51.726Z,15.09
2022-08-08T02:31:59.402Z,15.09
2022-08-08T02:35:07.476Z,15.11
2022-08-08T02:37:56.351Z,15.09
2022-08-08T02:40:45.225Z,15.14
2022-08-08T02:44:43.014Z,15.17
2022-08-08T02:47:01.399Z,15.20
2022-08-08T02:50:05.749Z,15.19
2022-08-08T02:53:10.890Z,15.13
2022-08-08T02:56:23.087Z,15.15
2022-08-08T02:59:57.221Z,15.13
2022-08-08T03:02:55.614Z,15.19
2022-08-08T03:06:07.240Z,15.20
2022-08-08T03:09:08.677Z,15.29
2022-08-08T03:12:36.441Z,15.33
2022-08-08T03:16:09.505Z,15.39
2022-08-08T03:19:00.284Z,15.42
2022-08-08T03:21:54.942Z,15.46
2022-08-08T03:24:20.995Z,15.56
2022-08-08T03:26:53.462Z,15.65
2022-08-08T03:29:26.933Z,15.80
2022-08-08T03:32:30.604Z,16.02
2022-08-08T03:35:01.798Z,16.22
2022-08-08T03:37:59.823Z,16.33
2022-08-08T03:40:30.601Z,16.43
2022-08-08T03:43:15.819Z,16.61
2022-08-08T03:46:06.639Z,16.72
2022-08-08T03:49:09.883Z,16.73
2022-08-08T03:51:47.073Z,16.67
2022-08-08T03:54:15.556Z,16.59
2022-08-08T03:58:30.523Z,16.54
2022-08-08T04:00:02.663Z,16.52
2022-08-08T04:02:52.282Z,16.50
2022-08-08T04:05:27.346Z,16.53
2022-08-08T04:07:58.340Z,16.56
2022-08-08T04:10:32.159Z,16.58
2022-08-08T04:13:03.742Z,16.62
2022-08-08T04:16:05.463Z,16.72
2022-08-08T04:18:44.700Z,16.81
2022-08-08T04:21:22.900Z,16.96
2022-08-08T04:24:05.379Z,17.06
2022-08-08T04:26:57.385Z,17.23
2022-08-08T04:29:37.117Z,17.21
2022-08-08T04:32:07.160Z,17.18
2022-08-08T04:34:49.447Z,17.25
2022-08-08T04:37:31.817Z,17.19
2022-08-08T04:40:05.243Z,17.15
2022-08-08T04:42:36.780Z,17.04
2022-08-08T04:45:07.818Z,17.04
2022-08-08T04:47:46.309Z,17.05
2022-08-08T04:50:24.752Z,17.01
2022-08-08T04:53:00.972Z,16.94
2022-08-08T04:55:47.292Z,16.93
2022-08-08T04:58:22.529Z,16.87
2022-08-08T05:01:11.065Z,16.79
2022-08-08T05:04:11.048Z,16.76
2022-08-08T05:06:29.049Z,16.87
2022-08-08T05:09:02.343Z,16.98
2022-08-08T05:11:39.575Z,17.13
2022-08-08T05:14:12.783Z,17.21
2022-08-08T05:17:10.624Z,17.33
2022-08-08T05:20:09.691Z,17.43
2022-08-08T05:22:27.933Z,17.49
2022-08-08T05:25:03.241Z,17.54
2022-08-08T05:27:33.378Z,17.42
2022-08-08T05:30:04.218Z,17.43
2022-08-08T05:32:36.440Z,17.52
2022-08-08T05:35:05.814Z,17.61
2022-08-08T05:37:52.645Z,17.68
2022-08-08T05:40:28.660Z,17.83
2022-08-08T05:43:02.778Z,17.91
2022-08-08T05:45:42.976Z,17.97
2022-08-08T05:48:28.577Z,18.09
2022-08-08T05:51:13.439Z,18.19
2022-08-08T05:54:25.873Z,18.32
2022-08-08T05:56:42.714Z,18.45
2022-08-08T05:59:58.615Z,18.52
2022-08-08T06:02:38.719Z,18.63
2022-08-08T06:05:34.533Z,18.62
2022-08-08T06:08:09.618Z,18.43
2022-08-08T06:10:41.065Z,18.36
2022-08-08T06:13:09.858Z,18.30
2022-08-08T06:15:50.651Z,18.31
2022-08-08T06:18:24.025Z,18.32
2022-08-08T06:20:59.486Z,18.36
2022-08-08T06:23:52.573Z,18.42
2022-08-08T06:26:38.539Z,18.40
2022-08-08T06:29:26.002Z,18.47
2022-08-08T06:32:10.445Z,18.50
2022-08-08T06:34:56.209Z,18.59
2022-08-08T06:37:40.355Z,18.82
2022-08-08T06:40:16.636Z,18.86
2022-08-08T06:42:57.289Z,18.89
2022-08-08T06:45:25.743Z,18.97
2022-08-08T06:48:00.691Z,18.94
2022-08-08T06:50:33.331Z,18.91
2022-08-08T06:53:09.991Z,18.85
2022-08-08T06:55:43.511Z,18.81
2022-08-08T06:58:18.751Z,18.87
2022-08-08T07:00:51.490Z,19.04
2022-08-08T07:03:52.642Z,19.10
2022-08-08T07:06:26.908Z,19.18
2022-08-08T07:09:02.970Z,19.21
2022-08-08T07:11:46.040Z,19.31
2022-08-08T07:14:22.543Z,19.27
2022-08-08T07:17:03.206Z,19.56
2022-08-08T07:19:44.554Z,19.78
2022-08-08T07:22:23.523Z,19.93
2022-08-08T07:24:59.792Z,19.82
2022-08-08T07:27:47.428Z,19.69
2022-08-08T07:30:25.964Z,19.51
2022-08-08T07:32:54.831Z,19.53
2022-08-08T07:35:28.427Z,19.84
2022-08-08T07:38:10.301Z,19.96
2022-08-08T07:40:50.553Z,20.18
2022-08-08T07:43:35.119Z,20.55
2022-08-08T07:46:23.332Z,20.86
2022-08-08T07:48:52.504Z,21.13
2022-08-08T07:51:24.067Z,21.53
2022-08-08T07:54:27.001Z,21.89
2022-08-08T07:57:10.874Z,22.11
2022-08-08T07:59:52.325Z,22.14
2022-08-08T08:02:36.909Z,22.07
2022-08-08T08:05:15.636Z,21.68
2022-08-08T08:07:46.052Z,21.16
2022-08-08T08:10:18.254Z,21.00
2022-08-08T08:13:25.215Z,20.83
2022-08-08T08:27:02.684Z,20.41
2022-08-08T08:29:50.908Z,20.49
2022-08-08T08:32:31.860Z,20.53
2022-08-08T08:35:06.526Z,20.71
2022-08-08T08:37:43.899Z,20.93
2022-08-08T08:40:23.608Z,21.25
2022-08-08T08:42:55.322Z,21.43
2022-08-08T08:45:26.899Z,21.59
2022-08-08T08:47:58.153Z,21.60
2022-08-08T08:50:32.904Z,21.50
2022-08-08T08:53:27.934Z,21.27
2022-08-08T08:56:02.188Z,21.11
2022-08-08T08:58:33.574Z,21.08
2022-08-08T09:01:10.362Z,21.15
2022-08-08T09:03:46.787Z,21.19
2022-08-08T09:06:28.853Z,21.15
2022-08-08T09:09:07.349Z,21.12
2022-08-08T09:12:01.688Z,21.06
2022-08-08T09:15:12.523Z,21.06
2022-08-08T09:18:18.794Z,20.94
2022-08-08T09:21:58.842Z,20.97
2022-08-08T09:25:11.579Z,20.91
2022-08-08T09:28:35.346Z,20.85
2022-08-08T09:31:56.593Z,20.89
2022-08-08T09:35:07.854Z,21.17
2022-08-08T09:38:17.707Z,21.52
2022-08-08T09:41:23.730Z,22.02
2022-08-08T09:44:34.275Z,22.52
2022-08-08T09:48:03.899Z,22.89
2022-08-08T09:51:05.948Z,23.35
2022-08-08T09:54:19.658Z,23.57
2022-08-08T10:05:31.124Z,23.93
2022-08-08T10:08:37.455Z,24.00
2022-08-08T10:12:27.930Z,24.08
2022-08-08T10:15:17.910Z,24.13
2022-08-08T10:18:25.770Z,24.19
2022-08-08T10:21:32.787Z,24.05
2022-08-08T10:24:39.362Z,23.62
2022-08-08T10:27:44.930Z,23.38
2022-08-08T10:30:59.796Z,23.35
2022-08-08T10:34:19.064Z,23.37
2022-08-08T10:37:26.260Z,23.69
2022-08-08T10:40:33.289Z,23.91
2022-08-08T10:43:38.713Z,24.21
2022-08-08T10:46:46.228Z,24.45
2022-08-08T10:50:02.258Z,24.72
2022-08-08T10:53:12.629Z,24.88
2022-08-08T10:56:27.862Z,24.72
2022-08-08T10:59:39.598Z,24.76
2022-08-08T11:02:46.622Z,24.73
2022-08-08T11:06:00.583Z,24.63
2022-08-08T11:09:15.270Z,24.68
2022-08-08T11:12:28.565Z,24.75
2022-08-08T11:15:35.145Z,24.57
2022-08-08T11:18:58.345Z,24.34
2022-08-08T11:22:04.429Z,24.15
2022-08-08T11:25:13.780Z,23.80
2022-08-08T11:28:20.268Z,23.66
2022-08-08T11:31:27.589Z,23.52
2022-08-08T11:35:08.920Z,23.53
2022-08-08T11:38:35.087Z,23.70
2022-08-08T11:41:37.525Z,23.75
2022-08-08T11:44:44.025Z,23.85
2022-08-08T11:48:02.422Z,24.00
2022-08-08T11:51:30.778Z,24.51
2022-08-08T11:54:44.597Z,25.06
2022-08-08T11:57:51.810Z,25.20
2022-08-08T12:01:12.142Z,24.89
2022-08-08T12:04:21.668Z,24.49
2022-08-08T12:07:29.120Z,24.03
2022-08-08T12:10:37.543Z,23.58
2022-08-08T12:14:03.831Z,23.23
2022-08-08T12:17:15.106Z,23.04
2022-08-08T12:20:23.301Z,23.04
2022-08-08T12:23:40.340Z,23.01
2022-08-08T12:26:50.108Z,22.87
2022-08-08T12:29:55.741Z,22.96
2022-08-08T12:33:02.136Z,23.13
2022-08-08T12:36:13.299Z,23.26
2022-08-08T12:39:18.938Z,23.47
2022-08-08T12:42:33.662Z,23.59
2022-08-08T12:45:58.544Z,23.94
2022-08-08T12:49:42.873Z,24.17
2022-08-08T12:52:32.670Z,24.32
2022-08-08T12:56:06.078Z,24.52
2022-08-08T12:59:07.840Z,24.74
2022-08-08T13:02:13.343Z,24.89
2022-08-08T13:05:26.415Z,25.12
2022-08-08T13:08:53.840Z,24.98
2022-08-08T13:12:28.114Z,24.62
2022-08-08T13:15:28.782Z,24.48
2022-08-08T13:18:48.882Z,24.79
2022-08-08T13:22:04.879Z,25.10
2022-08-08T13:25:12.789Z,25.23
2022-08-08T13:28:20.778Z,25.49
2022-08-08T13:31:29.502Z,25.50
2022-08-08T13:34:36.566Z,25.29
2022-08-08T13:38:05.542Z,25.40
2022-08-08T13:41:16.412Z,25.52
2022-08-08T13:44:23.696Z,25.70
2022-08-08T13:47:34.390Z,25.63
2022-08-08T13:50:51.014Z,25.48
2022-08-08T13:54:01.207Z,25.37
2022-08-08T13:57:08.612Z,25.46
2022-08-08T14:00:13.896Z,25.62
2022-08-08T14:03:52.253Z,25.67
2022-08-08T14:06:47.405Z,25.46
2022-08-08T14:10:04.874Z,25.28
2022-08-08T14:13:30.942Z,25.02
2022-08-08T14:16:39.646Z,24.88
2022-08-08T14:19:57.699Z,24.85
2022-08-08T14:23:21.568Z,25.00
2022-08-08T14:26:38.385Z,25.28
2022-08-08T14:29:43.962Z,25.33
2022-08-08T14:32:53.295Z,25.23
2022-08-08T14:35:59.411Z,25.15
2022-08-08T14:39:11.648Z,25.02
2022-08-08T14:42:18.483Z,24.88
2022-08-08T14:45:33.325Z,24.62
2022-08-08T14:48:59.157Z,24.32
2022-08-08T14:52:04.577Z,24.12
2022-08-08T14:55:10.799Z,23.94
2022-08-08T14:58:20.142Z,23.69
2022-08-08T15:01:27.956Z,23.66
2022-08-08T15:04:43.542Z,23.63
2022-08-08T15:07:59.810Z,23.56
2022-08-08T15:11:06.693Z,23.67
2022-08-08T15:14:13.846Z,23.88
2022-08-08T15:17:22.134Z,24.00
2022-08-08T15:20:28.659Z,24.03
2022-08-08T15:23:34.914Z,24.09
2022-08-08T15:26:41.797Z,24.14
2022-08-08T15:29:48.411Z,24.14
2022-08-08T15:32:54.082Z,24.22
2022-08-08T15:35:59.753Z,24.22
2022-08-08T15:39:06.335Z,24.09
2022-08-08T15:42:24.034Z,24.13
2022-08-08T15:49:04.127Z,24.17
2022-08-08T15:52:12.362Z,24.16
2022-08-08T15:55:19.659Z,24.31
2022-08-08T15:58:31.812Z,24.54
2022-08-08T16:01:40.496Z,25.13
2022-08-08T16:05:17.560Z,25.49
2022-08-08T16:08:24.323Z,25.78
2022-08-08T16:13:03.134Z,27.11
2022-08-08T16:14:57.634Z,28.68
2022-08-08T16:18:12.185Z,29.32
2022-08-08T16:21:26.213Z,29.90
2022-08-08T16:24:32.632Z,30.29
2022-08-08T16:27:38.834Z,29.83
2022-08-08T16:30:44.273Z,29.20
2022-08-08T16:33:59.212Z,29.00
2022-08-08T16:37:05.293Z,28.95
2022-08-08T16:40:12.340Z,30.11
2022-08-08T16:43:24.318Z,30.62
2022-08-08T16:46:42.793Z,31.07
2022-08-08T16:49:51.556Z,31.47
2022-08-08T16:55:04.914Z,31.89
2022-08-08T16:56:23.730Z,32.27
2022-08-08T16:59:52.055Z,32.56
2022-08-08T17:02:59.158Z,33.06
2022-08-08T17:06:36.495Z,33.07
2022-08-08T17:09:45.009Z,33.00
2022-08-08T17:12:52.824Z,31.97
2022-08-08T17:15:59.454Z,30.77
2022-08-08T17:19:08.283Z,29.90
2022-08-08T17:22:13.881Z,28.71
2022-08-08T17:25:20.338Z,27.71
2022-08-08T17:28:45.980Z,27.06
2022-08-08T17:31:51.721Z,26.83
2022-08-08T17:35:52.042Z,26.41
2022-08-08T17:38:22.629Z,26.04
2022-08-08T17:41:30.653Z,25.51
2022-08-08T17:44:48.997Z,25.06
2022-08-08T17:47:55.232Z,24.92
2022-08-08T17:51:01.195Z,24.79
2022-08-08T17:54:09.181Z,25.16
2022-08-08T17:57:20.007Z,26.05
2022-08-08T18:00:30.697Z,26.80
2022-08-08T18:03:36.767Z,27.41
2022-08-08T18:06:45.808Z,27.85
2022-08-08T18:09:51.569Z,28.17
2022-08-08T18:12:57.422Z,28.46
2022-08-08T18:16:05.997Z,28.46
2022-08-08T18:19:13.082Z,27.95
2022-08-08T18:22:50.023Z,27.47
2022-08-08T18:25:47.214Z,26.78
2022-08-08T18:28:55.325Z,26.25
2022-08-08T18:32:03.585Z,26.12
2022-08-08T18:35:09.774Z,25.47
2022-08-08T18:38:21.140Z,24.81
2022-08-08T18:41:51.944Z,24.22
2022-08-08T18:45:08.937Z,23.67
2022-08-08T18:51:54.128Z,22.68
2022-08-08T18:55:10.567Z,22.31
2022-08-08T18:58:17.089Z,21.90
2022-08-08T19:02:25.733Z,21.61
2022-08-08T19:04:53.526Z,21.29
2022-08-08T19:08:03.070Z,21.01
2022-08-08T19:11:10.066Z,20.72
2022-08-08T19:14:23.061Z,20.48
2022-08-08T19:17:47.879Z,20.23
2022-08-08T19:20:54.544Z,20.00
2022-08-08T19:24:00.280Z,19.77
2022-08-08T19:27:07.308Z,19.60
2022-08-08T19:30:24.095Z,19.41
2022-08-08T19:33:39.626Z,19.23
2022-08-08T19:36:59.207Z,19.06
2022-08-08T19:40:05.415Z,18.93
2022-08-08T19:43:12.421Z,18.82
2022-08-08T19:46:22.545Z,18.73
2022-08-08T19:49:37.867Z,18.62
2022-08-08T19:52:54.793Z,18.52
2022-08-08T19:56:02.738Z,18.40
2022-08-08T19:59:09.229Z,18.31
2022-08-08T20:02:15.399Z,18.21
2022-08-08T20:06:13.538Z,18.09
2022-08-08T20:08:49.928Z,17.98
2022-08-08T20:11:55.913Z,17.90
2022-08-08T20:15:02.390Z,17.77
2022-08-08T20:18:20.245Z,17.65
2022-08-08T20:21:38.256Z,17.52
2022-08-08T20:24:43.859Z,17.41
2022-08-08T20:27:54.192Z,17.30
2022-08-08T20:31:00.103Z,17.21
2022-08-08T20:34:29.621Z,17.13
2022-08-08T20:37:53.361Z,17.05
2022-08-08T20:41:00.246Z,16.98
2022-08-08T20:44:05.910Z,16.91
2022-08-08T20:47:15.810Z,16.85
2022-08-08T20:50:33.680Z,16.77
2022-08-08T20:54:00.757Z,16.71
2022-08-08T20:57:17.231Z,16.63
2022-08-08T21:00:24.467Z,16.55
2022-08-08T21:03:30.242Z,16.46
2022-08-08T21:06:53.267Z,16.37
2022-08-08T21:10:07.744Z,16.30
2022-08-08T21:13:18.208Z,16.23
2022-08-08T21:16:28.993Z,16.15
2022-08-08T21:19:45.164Z,16.06
2022-08-08T21:22:51.929Z,15.95
2022-08-08T21:25:57.737Z,15.86
2022-08-08T21:29:03.764Z,15.80
2022-08-08T21:32:14.285Z,15.73
2022-08-08T21:36:15.086Z,15.66
2022-08-08T21:38:50.855Z,15.61
2022-08-08T21:41:59.308Z,15.59
2022-08-08T21:45:44.851Z,15.55
2022-08-08T21:48:41.317Z,15.51
2022-08-08T21:54:34.598Z,15.47
2022-08-08T21:55:24.335Z,15.41
2022-08-08T21:58:43.124Z,15.32
2022-08-08T22:02:04.310Z,15.20
2022-08-08T22:05:10.881Z,15.10
2022-08-08T22:08:24.165Z,15.04
2022-08-08T22:11:58.760Z,14.98
2022-08-08T22:14:55.394Z,14.93
2022-08-08T22:18:02.935Z,14.87
2022-08-08T22:21:21.777Z,14.79
2022-08-08T22:24:31.842Z,14.72
2022-08-08T22:28:00.865Z,14.69
2022-08-08T22:31:03.634Z,14.67
2022-08-08T22:34:13.478Z,14.65
2022-08-08T22:37:27.586Z,14.60
2022-08-08T22:40:48.920Z,14.56
2022-08-08T22:44:02.265Z,14.51
2022-08-08T22:47:17.832Z,14.46
2022-08-08T22:50:26.740Z,14.41
2022-08-08T22:54:31.523Z,14.35
2022-08-08T22:56:58.664Z,14.30
2022-08-08T23:00:04.771Z,14.25
2022-08-08T23:03:22.819Z,14.20
2022-08-08T23:06:28.462Z,14.14
2022-08-08T23:09:39.354Z,14.07
2022-08-08T23:12:59.758Z,13.98
2022-08-08T23:16:41.851Z,13.92
2022-08-08T23:19:32.240Z,13.86
2022-08-08T23:22:38.283Z,13.81
2022-08-08T23:25:48.794Z,13.76
2022-08-08T23:28:58.682Z,13.71
2022-08-08T23:32:04.703Z,13.68
2022-08-08T23:35:12.592Z,13.60
2022-08-08T23:38:26.336Z,13.53
2022-08-08T23:41:31.738Z,13.47
2022-08-08T23:44:52.284Z,13.40
2022-08-08T23:49:06.770Z,13.35
2022-08-08T23:52:05.152Z,13.29
2022-08-08T23:55:07.146Z,13.23
2022-08-08T23:58:37.619Z,13.18
